Novocherkassk, Russia
Current Conditions -  °F | °C
As of 12:30 AM on Sunday 23 Nov 2014 (Local Time) from URRR Reporting Station
Clear Clear  
Wind Chill: 12°   Ceiling: Unl
Heat Index: 23°   Visibility: 5mi
Dew Point: 12°   Wind: 11mph
Humidity: 63%   Direction: 60°ENE
Pressure: 30.27"   Gusts: 18mph
Location:  47.42°N, 40.09°E
Report Text: URRR 222130Z 06005G08MPS P8000 NSC M05/M11 Q1025 04CLRD70NOSIG
Loading
Personal Weather Stations






























Interactive Weather Map New forecast layout! Learn more

10-Day Weather Forecast

Advertisements
Track Severe Weather on mobile